航空気象通報

ウインドサーファーのための航空気象通報による風予報です。

4/30-5/2の航空気象通報

2014年04月30日 23時26分16秒 | TAF

羽田空港
TAF RJTT 301107Z 3012/0118 19020KT 8000 -SHRA FEW008 BKN015
TEMPO 3012/3016 19026G36KT 3000 SHRA BR FEW005 BKN008
TEMPO 3016/3018 19022G32KT 4000 -SHRA BR FEW005 BKN008
TEMPO 3018/3022 3000 SHRA BR FEW005 BKN008
TEMPO 0109/0112 3000 SHRA BR
BECMG 0112/0115 34008KT
日本時間30日21時-1日21時:190度から20ノットの風
但し、30日21時-1日01時の間:ときどき190度から26ノット、突風36ノット
但し、1日01-03時の間:ときどき190度から22ノット、突風32ノット
21-24時:風が変化
2日00-03時:340度から8ノットの風

静岡空港
TAF RJNS 301107Z 3012/0118 17008KT 6000 FEW008 BKN012
TEMPO 3012/3018 4000 -SHRA BR FEW004 BKN008
BECMG 3013/3015 24014KT
日本時間30日21-22時:170度から8ノットの風
22-24時:風が変化
1日00時-2日03時:240度から14ノットの風

但し、30日21時-1日03時の間:ときどき

福岡空港
TAF RJFF 301109Z 3012/0118 16005KT 9999 FEW010 SCT030
BECMG 0100/0103 30011KT
BECMG 0109/0112 16005KT
日本時間30日21時-1日09時:160度から5ノットの風
09-12時:風が変化
12-18時:300度から11ノットの風
18-21時:風が変化
21時-2日03時:160度から5ノットの風

那覇空港
TAF ROAH 301105Z 3012/0118 03006KT 8000 FEW025 SCT045
日本時間30日21時-2日03時:030度から6ノットの風

石垣空港
TAF ROIG 301109Z 3012/0118 08010KT 9999 FEW025 SCT045
TEMPO 0109/0112 4000 SHRA
日本時間30日21時-2日03時:080度から10ノットの風

マウイのカフルイ空港
PHOG 301120Z 3012/0112 05005KT P6SM SCT050
FM302000 05015G22KT P6SM VCSH FEW025 BKN045
FM010500 05012KT P6SM VCSH SCT025 BKN045 AMD LTD TO WX VIS AND WIND TIL 301600
ハワイ時間30日02-10時:050度から5ノットの風

10-19時:050度から15ノット、突風22ノット
19時-1日02時:050度から12ノットの風

サイパン空港
PGSN 301120Z 3012/0112 13007KT P6SM VCSH FEW020 SCT040
マリアナ時間30日22時-1日22時:130度から7ノットの風

コメント

4/29-5/1の航空気象通報

2014年04月29日 21時46分08秒 | TAF

羽田空港
TAF RJTT 291111Z 2912/3018 18010KT 9999 FEW030 BKN060
TEMPO 3000/3003 4000 -SHRA BR
TEMPO 3003/3006 3000 SHRA BR FEW005 BKN008
BECMG 3006/3009 17020KT
TEMPO 3009/3015 17025G35KT
TEMPO 3015/3018 4000 -SHRA BR
日本時間29日21時-30日15時:180度から10ノットの風
15-18時:風が変化
18時-1日03時:170度から20ノットの風
但し、30日18-24時の間:ときどき170度から25ノット、突風35ノット

但し、30日09-15時の間:ときどき
但し、1日00-03時の間:ときどき

静岡空港
TAF RJNS 291106Z 2912/3018 02006KT 6000 -RA FEW010 BKN020
BECMG 2918/2920 3000 -RA BR FEW002 BKN005
TEMPO 2919/3003 0800 RA FG
BECMG 3003/3006 16010KT 4000 -SHRA BR
TEMPO 3006/3012 1200 TSRA BR FEW002 BKN004 FEW020CB
BECMG 3015/3018 26008KT 8000 NSW FEW006 BKN015
日本時間29日21時-30日12時:020度から6ノットの風
12-15時:風が変化
15-24時:160度から10ノットの風
1日00-03時:風が変化
03時:260度から8ノットの風
、1日00-03時の後、
但し、30日15-21時の間:ときどき

福岡空港
TAF RJFF 291114Z 2912/3018 16010KT 9999 FEW020 BKN030
BECMG 3000/3003 29010KT
BECMG 3009/3012 16005KT
日本時間29日21時-30日09時:160度から10ノットの風
09-12時:風が変化
12-18時:290度から10ノットの風
18-21時:風が変化
21時-1日03時:160度から5ノットの風

那覇空港
TAF ROAH 291106Z 2912/3018 01009KT 9999 SCT025
日本時間29日21時-1日03時:010度から9ノットの風

石垣空港
TAF ROIG 291108Z 2912/3018 04008KT 9999 FEW025
日本時間29日21時-1日03時:040度から8ノットの風

マウイのカフルイ空港
PHOG 291120Z 2912/3012 06005KT P6SM VCSH SCT025 BKN050
FM292000 04015G22KT P6SM SCT050
FM300400 04012KT P6SM VCSH SCT030 BKN050 AMD LTD TO WX VIS AND WIND TIL 291600
ハワイ時間29日02-10時:060度から5ノットの風

10-18時:040度から15ノット、突風22ノット

18時-30日02時:040度から12ノットの風

サイパン空港
PGSN 291120Z 2912/3012 25007KT P6SM VCSH SCT020
マリアナ時間29日22時-30日22時:250度から7ノットの風

コメント

4/28-4/30の航空気象通報

2014年04月28日 22時37分24秒 | TAF

羽田空港
TAF RJTT 281105Z 2812/2918 22010KT 9999 FEW030
BECMG 2818/2820 27004KT
BECMG 2822/2824 18012KT
日本時間28日21時-29日03時:220度から10ノットの風
03-05時:風が変化
05-07時:270度から4ノットの風
07-09時:風が変化
09時-30日03時:180度から12ノットの風

静岡空港
TAF RJNS 281105Z 2812/2918 25005KT 9999 FEW015 SCT030
BECMG 2900/2903 04005KT
BECMG 2903/2906 4000 -SHRA BR
TEMPO 2912/2918 2000 -SHRA BR FEW003 BKN007
日本時間28日21時-29日09時:250度から5ノットの風
09-12時:風が変化
12時-30日03時:040度から5ノットの風

但し、29日12-15時の間:ときどき
但し、29日21時-30日03時の間:ときどき

福岡空港
TAF RJFF 281105Z 2812/2918 15007KT 9999 -SHRA FEW010 SCT020 BKN040
日本時間28日21時-30日03時:150度から7ノットの風

那覇空港
TAF ROAH 281105Z 2812/2918 36017KT 8000 FEW020 SCT040
日本時間28日21時-30日03時:360度から17ノットの風

石垣空港
TAF ROIG 281107Z 2812/2918 02012KT 8000 FEW020 SCT035
日本時間28日21時-30日03時:020度から12ノットの風

マウイのカフルイ空港
PHOG 281120Z 2812/2912 05008KT P6SM SCT025 BKN250
FM282100 02012G22KT P6SM SCT025 BKN050
FM290700 05008KT P6SM SCT025 BKN250 AMD LTD TO WX VIS AND WIND TIL 281600
ハワイ時間28日02-11時:050度から8ノットの風
11-21時:020度から12ノット、突風22ノット
21時-29日02時:050度から8ノットの風

サイパン空港
PGSN 281120Z 2812/2912 04011KT P6SM VCSH SCT020
マリアナ時間28日22時-29日22時:040度から11ノットの風

コメント

4/27-4/29の航空気象通報

2014年04月28日 00時03分56秒 | TAF

羽田空港
TAF RJTT 271105Z 2712/2818 22012KT 9999 FEW030
日本時間27日21時-29日03時:220度から12ノットの風

静岡空港
TAF RJNS 271105Z 2712/2818 30008KT 9999 FEW030
BECMG 2800/2803 23010KT
日本時間27日21時-28日09時:300度から8ノットの風
09-12時:風が変化
12時-29日03時:230度から10ノットの風

福岡空港
TAF RJFF 271115Z 2712/2818 13007KT 8000 -RA FEW010 SCT025 BKN040
TEMPO 2718/2721 4000 RA BR
TEMPO 2721/2724 13015G25KT 4000 RA BR
TEMPO 2800/2806 13015G25KT
日本時間27日21時-29日03時:130度から7ノットの風
但し、28日06-09時:130度から15ノット、突風25ノット
但し、28日09-15時:130度から15ノット、突風25ノット

那覇空港
TAF ROAH 271107Z 2712/2818 13013KT 9999 FEW020 BKN045
TEMPO 2712/2714 4000 RA
TEMPO 2721/2724 3000 SHRA SCT008 BKN015 SCT020CB
TEMPO 2800/2806 16018G28KT
BECMG 2806/2809 34013KT
TEMPO 2806/2809 3000 TSRA SCT006 BKN008 SCT020CB
日本時間27日21時-28日15時:130度から13ノットの風
但し、28日09-15時の間:ときどき160度から18ノット、突風28ノット
15-18時:風が変化
18時-29日03時:340度から13ノットの風

但し、27日21時-28日09時の間:ときどき
但し、28日15-18時の間:ときどき

石垣空港
TAF ROIG 271110Z 2712/2818 36010KT 9999 FEW010 BKN015
TEMPO 2712/2713 4000 SHRA FEW004 BKN008
日本時間27日21時-29日03時:360度から10ノットの風

但し、28日21-22時の間:ときどき

マウイのカフルイ空港
PHOG 271125Z 2712/2812 06012KT P6SM FEW030 SCT050
FM272000 04014G20KT P6SM FEW030 SCT050
FM280400 07008KT P6SM FEW030 SCT050 AMD LTD TO WX VIS AND WIND TIL 271600
ハワイ時間27日02-10時:060度から12ノットの風
10-18時:040度から14ノット、突風20ノット
18時-28日02時:070度から8ノットの風

サイパン空港
PGSN 271121Z 2712/2812 09006KT P6SM VCSH FEW012 SCT035 BKN080
FM280000 10012KT P6SM VCSH SCT015 BKN035 BKN100
マリアナ時間27日22時-28日10時:090度から6ノットの風
10-22時:100度から12ノットの風

コメント

4/26-4/28の航空気象通報

2014年04月26日 21時40分33秒 | TAF

羽田空港
TAF RJTT 261107Z 2612/2718 21010KT 9999 FEW030
BECMG 2618/2620 27004KT
BECMG 2621/2623 19012KT
日本時間26日21時-27日03時:210度から10ノットの風
03-05時:風が変化
05-06時:270度から4ノットの風
06-08時:風が変化
08時-28日03時:190度から12ノットの風

静岡空港
TAF RJNS 261105Z 2612/2718 30006KT 9999 FEW030
BECMG 2700/2703 18008KT
BECMG 2706/2709 22010KT
BECMG 2709/2712 28008KT
日本時間26日21時-27日09時:300度から6ノットの風
09-12時:風が変化
12-15時:180度から8ノットの風
15-18時:風が変化
18時:220度から10ノットの風
18-21時:風が変化
21時-28日03時:280度から8ノットの風

福岡空港
TAF RJFF 261115Z 2612/2718 14005KT 9999 FEW030
BECMG 2700/2703 32007KT
BECMG 2709/2712 14003KT
日本時間26日21時-27日09時:140度から5ノットの風
09-12時:風が変化
12-18時:320度から7ノットの風
18-21時:風が変化
21時-28日03時:140度から3ノットの風

那覇空港
TAF ROAH 261106Z 2612/2718 11013KT 9999 FEW025
TEMPO 2612/2615 10015G26KT
日本時間26日21時-28日03時:110度から13ノットの風

石垣空港
TAF ROIG 261110Z 2612/2718 11014KT 9999 SCT015 BKN025
BECMG 2700/2703 17011KT
TEMPO 2715/2718 4000 SHRA
日本時間26日21時-27日09時:100度から14ノットの風
09-12時:風が変化
12時-28日03時:170度から11ノットの風

但し、28日00-03時の間:ときどき

マウイのカフルイ空港
PHOG 261137Z 2612/2712 05012G18KT P6SM VCSH FEW025 SCT050
FM261800 06018G28KT P6SM FEW030 SCT050
FM270500 05014G20KT P6SM FEW030 SCT050 AMD LTD TO WX VIS AND WIND TIL 261600
ハワイ時間26日02-08時:050度から12ノット、突風18ノット
08-19時:060度から18ノット、突風28ノット
19時-27日02時:050度から14ノット、突風20ノット

サイパン空港
PGSN 261132Z 2612/2712 10011KT P6SM VCSH SCT020 SCT040 BKN100
FM262200 07012KT P6SM VCSH SCT020 BKN050 BKN100
マリアナ時間26日22時-27日08時:100度から11ノットの風
08-22時:070度から12ノットの風

コメント